createdAt,value
2023-05-05T00:00:41.824Z,1.85
2023-05-05T00:03:27.269Z,1.58
2023-05-05T00:06:13.110Z,1.50
2023-05-05T00:08:58.337Z,1.60
2023-05-05T00:11:43.666Z,1.90
2023-05-05T00:14:28.548Z,1.92
2023-05-05T00:17:13.706Z,1.58
2023-05-05T00:19:59.647Z,1.70
2023-05-05T00:22:44.829Z,1.92
2023-05-05T00:25:29.891Z,1.73
2023-05-05T00:28:15.071Z,1.65
2023-05-05T00:31:00.507Z,1.70
2023-05-05T00:33:45.870Z,2.15
2023-05-05T00:36:31.234Z,1.63
2023-05-05T00:39:16.487Z,1.90
2023-05-05T00:42:01.826Z,1.75
2023-05-05T00:44:47.213Z,1.75
2023-05-05T00:47:32.715Z,1.73
2023-05-05T00:50:29.942Z,1.67
2023-05-05T00:53:15.218Z,1.75
2023-05-05T00:56:00.716Z,1.65
2023-05-05T00:58:46.070Z,1.77
2023-05-05T01:01:31.516Z,1.70
2023-05-05T01:04:17.109Z,1.70
2023-05-05T01:07:20.862Z,1.95
2023-05-05T01:10:30.107Z,2.25
2023-05-05T01:13:49.527Z,1.98
2023-05-05T01:16:38.645Z,2.10
2023-05-05T01:19:39.231Z,2.08
2023-05-05T01:22:52.989Z,2.10
2023-05-05T01:25:53.384Z,1.80
2023-05-05T01:28:52.020Z,2.53
2023-05-05T01:31:53.598Z,1.90
2023-05-05T01:34:55.655Z,2.33
2023-05-05T01:37:50.680Z,2.40
2023-05-05T01:40:45.019Z,1.90
2023-05-05T01:43:35.055Z,2.38
2023-05-05T01:46:23.705Z,2.47
2023-05-05T01:49:11.555Z,1.83
2023-05-05T01:51:57.797Z,2.70
2023-05-05T01:54:46.059Z,2.58
2023-05-05T01:57:33.075Z,3.28
2023-05-05T02:00:20.084Z,3.22
2023-05-05T02:03:07.930Z,2.75
2023-05-05T02:05:54.952Z,2.67
2023-05-05T02:08:42.071Z,2.55
2023-05-05T02:11:28.124Z,3.00
2023-05-05T02:14:14.445Z,2.67
2023-05-05T02:17:01.363Z,3.30
2023-05-05T02:19:48.357Z,3.20
2023-05-05T02:22:33.165Z,2.80
2023-05-05T02:25:18.495Z,2.67
2023-05-05T02:28:04.750Z,3.55
2023-05-05T02:30:57.567Z,3.30
2023-05-05T02:33:44.410Z,3.22
2023-05-05T02:36:33.602Z,3.17
2023-05-05T02:39:34.998Z,3.33
2023-05-05T02:42:22.176Z,3.58
2023-05-05T02:45:15.134Z,3.40
2023-05-05T02:48:06.743Z,3.75
2023-05-05T02:50:52.152Z,3.20
2023-05-05T02:53:37.275Z,3.53
2023-05-05T02:56:41.188Z,3.65
2023-05-05T02:59:52.387Z,3.20
2023-05-05T03:02:45.304Z,3.35
2023-05-05T03:05:38.146Z,3.63
2023-05-05T03:09:06.301Z,3.22
2023-05-05T03:12:00.914Z,2.95
2023-05-05T03:14:48.663Z,3.83
2023-05-05T03:17:36.738Z,4.20
2023-05-05T03:20:22.435Z,4.03
2023-05-05T03:23:07.920Z,3.35
2023-05-05T03:25:52.895Z,3.85
2023-05-05T03:28:38.328Z,3.72
2023-05-05T03:31:23.388Z,3.70
2023-05-05T03:34:09.812Z,3.53
2023-05-05T03:36:55.393Z,3.35
2023-05-05T03:39:40.474Z,3.47
2023-05-05T03:42:25.741Z,3.30
2023-05-05T03:45:10.728Z,3.42
2023-05-05T03:47:56.062Z,4.00
2023-05-05T03:50:41.216Z,4.57
2023-05-05T03:53:26.403Z,5.05
2023-05-05T03:56:11.832Z,5.13
2023-05-05T03:58:57.118Z,4.93
2023-05-05T04:01:42.159Z,5.25
2023-05-05T04:04:27.221Z,5.15
2023-05-05T04:07:12.538Z,4.00
2023-05-05T04:09:57.947Z,3.75
2023-05-05T04:12:43.244Z,5.00
2023-05-05T04:15:28.417Z,4.57
2023-05-05T04:18:13.259Z,4.28
2023-05-05T04:20:58.522Z,4.80
2023-05-05T04:23:43.655Z,4.30
2023-05-05T04:26:28.580Z,3.90
2023-05-05T04:29:13.602Z,4.03
2023-05-05T04:31:58.638Z,3.50
2023-05-05T04:34:43.746Z,3.03
2023-05-05T04:37:28.998Z,3.20
2023-05-05T04:40:14.141Z,3.35
2023-05-05T04:42:59.348Z,3.42
2023-05-05T04:45:54.097Z,3.50
2023-05-05T04:48:39.223Z,2.92
2023-05-05T04:51:24.405Z,3.50
2023-05-05T04:54:09.358Z,3.13
2023-05-05T04:56:55.625Z,3.05
2023-05-05T04:59:41.197Z,3.40
2023-05-05T05:02:27.013Z,3.65
2023-05-05T05:05:12.181Z,3.38
2023-05-05T05:07:57.401Z,4.00
2023-05-05T05:10:43.615Z,4.97
2023-05-05T05:13:28.822Z,4.90
2023-05-05T05:16:14.368Z,4.70
2023-05-05T05:19:01.469Z,5.18
2023-05-05T05:21:46.715Z,4.90
2023-05-05T05:24:31.673Z,5.35
2023-05-05T05:27:16.528Z,6.18
2023-05-05T05:30:01.567Z,6.85
2023-05-05T05:32:46.807Z,6.90
2023-05-05T05:35:32.263Z,6.65
2023-05-05T05:38:17.862Z,6.97
2023-05-05T05:41:09.515Z,6.88
2023-05-05T05:43:55.389Z,6.68
2023-05-05T05:46:40.646Z,6.68
2023-05-05T05:49:25.855Z,7.00
2023-05-05T05:52:10.698Z,7.20
2023-05-05T05:54:56.292Z,7.25
2023-05-05T05:57:41.102Z,7.88
2023-05-05T06:00:26.107Z,6.90
2023-05-05T06:03:11.316Z,8.13
2023-05-05T06:05:56.575Z,8.85
2023-05-05T06:08:41.884Z,8.15
2023-05-05T06:11:26.986Z,7.93
2023-05-05T06:14:12.170Z,8.00
2023-05-05T06:16:57.093Z,7.63
2023-05-05T06:19:43.357Z,8.02
2023-05-05T06:22:28.445Z,7.43
2023-05-05T06:25:13.477Z,7.30
2023-05-05T06:27:58.685Z,7.53
2023-05-05T06:30:43.596Z,7.78
2023-05-05T06:33:28.703Z,7.80
2023-05-05T06:36:13.718Z,7.10
2023-05-05T06:38:58.758Z,6.78
2023-05-05T06:41:43.750Z,5.93
2023-05-05T06:44:30.055Z,6.75
2023-05-05T06:47:15.085Z,6.13
2023-05-05T06:50:00.212Z,5.72
2023-05-05T06:52:45.505Z,5.80
2023-05-05T06:55:30.871Z,5.15
2023-05-05T06:58:16.299Z,5.00
2023-05-05T07:01:01.619Z,4.78
2023-05-05T07:03:46.789Z,4.00
2023-05-05T07:06:32.090Z,3.97
2023-05-05T07:09:18.600Z,4.18
2023-05-05T07:12:04.444Z,4.63
2023-05-05T07:14:49.405Z,3.60
2023-05-05T07:17:34.400Z,3.38
2023-05-05T07:20:19.826Z,2.97
2023-05-05T07:23:04.767Z,3.00
2023-05-05T07:25:49.828Z,3.10
2023-05-05T07:28:34.993Z,3.28
2023-05-05T07:31:21.941Z,2.90
2023-05-05T07:34:06.887Z,3.20
2023-05-05T07:36:51.817Z,3.55
2023-05-05T07:39:37.146Z,3.83
2023-05-05T07:42:22.206Z,3.08
2023-05-05T07:45:07.875Z,3.20
2023-05-05T07:47:53.089Z,2.90
2023-05-05T07:50:38.485Z,3.15
2023-05-05T07:53:23.457Z,3.47
2023-05-05T07:56:09.014Z,3.10
2023-05-05T07:58:54.419Z,2.65
2023-05-05T08:01:39.695Z,2.75
2023-05-05T08:04:24.605Z,2.70
2023-05-05T08:07:10.645Z,2.80
2023-05-05T08:09:55.519Z,2.75
2023-05-05T08:12:40.710Z,2.72
2023-05-05T08:15:26.050Z,2.55
2023-05-05T08:18:11.415Z,2.50
2023-05-05T08:20:56.495Z,2.15
2023-05-05T08:23:41.407Z,2.92
2023-05-05T08:26:26.449Z,2.33
2023-05-05T08:29:11.758Z,2.05
2023-05-05T08:31:57.173Z,2.90
2023-05-05T08:34:42.250Z,2.58
2023-05-05T08:37:27.248Z,2.03
2023-05-05T08:40:14.236Z,2.03
2023-05-05T08:42:59.343Z,1.95
2023-05-05T08:45:45.185Z,2.53
2023-05-05T08:48:33.983Z,2.47
2023-05-05T08:51:20.534Z,2.30
2023-05-05T08:54:09.934Z,2.00
2023-05-05T08:56:59.824Z,1.60
2023-05-05T08:59:44.971Z,1.95
2023-05-05T09:02:31.277Z,2.17
2023-05-05T09:05:17.191Z,1.90
2023-05-05T09:08:02.171Z,1.70
2023-05-05T09:10:48.958Z,1.92
2023-05-05T09:13:34.273Z,1.70
2023-05-05T09:16:19.391Z,1.63
2023-05-05T09:19:05.060Z,1.80
2023-05-05T09:21:50.034Z,1.60
2023-05-05T09:24:35.328Z,1.85
2023-05-05T09:27:23.566Z,1.92
2023-05-05T09:30:10.038Z,1.48
2023-05-05T09:32:55.517Z,1.80
2023-05-05T09:35:55.100Z,1.80
2023-05-05T09:38:40.520Z,1.92
2023-05-05T09:41:43.504Z,2.00
2023-05-05T09:44:37.729Z,1.42
2023-05-05T09:47:34.845Z,1.40
2023-05-05T09:50:22.142Z,1.58
2023-05-05T09:53:08.041Z,1.70
2023-05-05T09:55:58.212Z,1.58
2023-05-05T09:58:43.219Z,1.73
2023-05-05T10:01:28.164Z,2.03
2023-05-05T10:04:28.340Z,1.98
2023-05-05T10:07:23.349Z,1.80
2023-05-05T10:10:11.605Z,1.45
2023-05-05T10:12:58.547Z,1.55
2023-05-05T10:15:45.777Z,1.42
2023-05-05T10:18:32.605Z,1.65
2023-05-05T10:21:20.626Z,1.92
2023-05-05T10:24:28.521Z,1.33
2023-05-05T10:27:20.137Z,7.10
2023-05-05T10:30:08.574Z,2.13
2023-05-05T10:33:27.133Z,1.90
2023-05-05T10:36:16.367Z,1.60
2023-05-05T10:39:03.375Z,1.98
2023-05-05T10:41:53.373Z,1.90
2023-05-05T10:44:38.486Z,1.48
2023-05-05T10:47:24.521Z,1.40
2023-05-05T10:50:18.222Z,1.90
2023-05-05T10:53:16.696Z,1.83
2023-05-05T10:56:26.715Z,1.48
2023-05-05T10:59:40.003Z,1.50
2023-05-05T11:02:27.317Z,1.50
2023-05-05T11:05:23.303Z,1.58
2023-05-05T11:08:28.388Z,1.67
2023-05-05T11:11:13.659Z,1.73
2023-05-05T11:14:28.349Z,1.30
2023-05-05T11:17:46.314Z,1.23
2023-05-05T11:20:39.469Z,1.27
2023-05-05T11:23:25.904Z,1.73
2023-05-05T11:26:13.191Z,1.42
2023-05-05T11:29:01.306Z,1.83
2023-05-05T11:31:47.886Z,1.48
2023-05-05T11:34:33.502Z,1.70
2023-05-05T11:37:23.837Z,1.80
2023-05-05T11:40:24.097Z,1.40
2023-05-05T11:43:09.457Z,1.65
2023-05-05T11:46:14.458Z,1.42
2023-05-05T11:48:59.672Z,1.20
2023-05-05T11:52:00.183Z,1.95
2023-05-05T11:54:50.370Z,1.13
2023-05-05T11:57:35.564Z,1.70
2023-05-05T12:00:32.174Z,1.90
2023-05-05T12:03:18.196Z,1.55
2023-05-05T12:06:07.268Z,1.15
2023-05-05T12:08:52.454Z,1.23
2023-05-05T12:11:57.837Z,1.63
2023-05-05T12:14:47.248Z,1.38
2023-05-05T12:17:42.992Z,1.52
2023-05-05T12:20:34.547Z,1.40
2023-05-05T12:23:20.205Z,1.17
2023-05-05T12:26:05.345Z,1.70
2023-05-05T12:28:50.451Z,1.10
2023-05-05T12:31:40.446Z,1.50
2023-05-05T12:34:25.222Z,1.40
2023-05-05T12:37:10.826Z,1.40
2023-05-05T12:39:55.905Z,1.80
2023-05-05T12:42:41.373Z,1.38
2023-05-05T12:45:26.289Z,1.30
2023-05-05T12:48:23.744Z,1.33
2023-05-05T12:51:23.080Z,1.60
2023-05-05T12:54:12.096Z,1.45
2023-05-05T12:56:58.513Z,1.50
2023-05-05T12:59:43.622Z,1.77
2023-05-05T13:02:35.248Z,1.88
2023-05-05T13:05:36.057Z,1.75
2023-05-05T13:08:21.302Z,1.77
2023-05-05T13:11:06.579Z,1.80
2023-05-05T13:13:51.817Z,1.75
2023-05-05T13:16:37.223Z,1.23
2023-05-05T13:19:25.775Z,2.00
2023-05-05T13:22:11.003Z,2.25
2023-05-05T13:24:56.349Z,1.73
2023-05-05T13:27:41.027Z,1.52
2023-05-05T13:30:26.145Z,1.30
2023-05-05T13:33:11.360Z,2.28
2023-05-05T13:35:56.318Z,1.42
2023-05-05T13:38:41.707Z,1.73
2023-05-05T13:41:26.797Z,1.75
2023-05-05T13:44:13.549Z,2.00
2023-05-05T13:46:58.735Z,1.40
2023-05-05T13:49:44.004Z,1.75
2023-05-05T13:52:31.617Z,1.55
2023-05-05T13:55:18.257Z,1.50
2023-05-05T13:58:03.527Z,2.05
2023-05-05T14:00:48.679Z,1.85
2023-05-05T14:03:33.834Z,1.48
2023-05-05T14:06:19.039Z,1.63
2023-05-05T14:09:06.106Z,2.00
2023-05-05T14:11:51.686Z,1.60
2023-05-05T14:14:37.074Z,1.55
2023-05-05T14:17:22.218Z,1.60
2023-05-05T14:20:08.050Z,1.70
2023-05-05T14:22:54.452Z,2.20
2023-05-05T14:25:39.705Z,1.80
2023-05-05T14:28:24.743Z,1.35
2023-05-05T14:31:10.152Z,1.40
2023-05-05T14:33:55.175Z,1.98
2023-05-05T14:36:41.126Z,1.75
2023-05-05T14:39:26.898Z,1.65
2023-05-05T14:42:12.539Z,2.72
2023-05-05T14:44:57.918Z,1.90
2023-05-05T14:47:43.287Z,1.90
2023-05-05T14:50:28.451Z,1.58
2023-05-05T14:53:13.617Z,1.73
2023-05-05T14:55:58.571Z,1.60
2023-05-05T14:58:43.957Z,1.75
2023-05-05T15:01:29.490Z,1.75
2023-05-05T15:04:14.665Z,2.10
2023-05-05T15:06:59.956Z,1.45
2023-05-05T15:09:45.044Z,1.88
2023-05-05T15:12:31.232Z,1.98
2023-05-05T15:15:17.281Z,2.15
2023-05-05T15:18:02.592Z,1.75
2023-05-05T15:20:48.435Z,1.98
2023-05-05T15:23:34.099Z,1.90
2023-05-05T15:26:19.435Z,1.67
2023-05-05T15:29:04.472Z,1.70
2023-05-05T15:31:49.603Z,2.10
2023-05-05T15:34:34.971Z,2.30
2023-05-05T15:37:20.132Z,2.10
2023-05-05T15:40:05.913Z,2.08
2023-05-05T15:42:51.399Z,1.63
2023-05-05T15:45:36.687Z,2.00
2023-05-05T15:48:21.712Z,1.85
2023-05-05T15:51:06.630Z,2.60
2023-05-05T15:53:53.205Z,1.98
2023-05-05T15:56:38.020Z,2.17
2023-05-05T15:59:23.211Z,2.42
2023-05-05T16:02:08.627Z,1.88
2023-05-05T16:04:54.007Z,2.08
2023-05-05T16:07:39.298Z,2.00
2023-05-05T16:10:24.502Z,2.58
2023-05-05T16:13:10.003Z,2.67
2023-05-05T16:15:55.685Z,2.30
2023-05-05T16:18:40.886Z,2.42
2023-05-05T16:21:25.839Z,2.38
2023-05-05T16:24:15.910Z,2.10
2023-05-05T16:27:00.960Z,2.53
2023-05-05T16:29:46.110Z,2.53
2023-05-05T16:32:31.000Z,2.28
2023-05-05T16:35:15.862Z,2.38
2023-05-05T16:38:00.867Z,2.35
2023-05-05T16:40:46.163Z,2.53
2023-05-05T16:43:31.669Z,2.40
2023-05-05T16:46:16.899Z,2.63
2023-05-05T16:49:02.564Z,2.70
2023-05-05T16:51:47.750Z,2.60
2023-05-05T16:54:32.884Z,2.58
2023-05-05T16:57:17.994Z,2.97
2023-05-05T17:00:04.880Z,2.70
2023-05-05T17:02:50.388Z,2.60
2023-05-05T17:05:35.586Z,3.08
2023-05-05T17:08:20.844Z,2.80
2023-05-05T17:11:06.207Z,2.50
2023-05-05T17:13:51.507Z,2.70
2023-05-05T17:16:36.780Z,3.17
2023-05-05T17:19:21.893Z,2.85
2023-05-05T17:22:07.186Z,2.75
2023-05-05T17:24:52.079Z,3.30
2023-05-05T17:27:37.096Z,2.72
2023-05-05T17:30:22.273Z,3.45
2023-05-05T17:33:07.760Z,2.53
2023-05-05T17:35:52.925Z,2.25
2023-05-05T17:38:37.968Z,2.80
2023-05-05T17:41:25.621Z,2.80
2023-05-05T17:44:10.467Z,3.13
2023-05-05T17:46:55.821Z,2.50
2023-05-05T17:49:40.985Z,2.70
2023-05-05T17:52:26.211Z,2.53
2023-05-05T17:55:11.586Z,2.55
2023-05-05T17:57:58.900Z,2.88
2023-05-05T18:00:43.748Z,3.05
2023-05-05T18:03:28.945Z,2.90
2023-05-05T18:06:14.329Z,3.05
2023-05-05T18:08:59.666Z,2.90
2023-05-05T18:11:44.882Z,3.78
2023-05-05T18:14:30.065Z,3.22
2023-05-05T18:17:15.191Z,2.72
2023-05-05T18:20:00.293Z,2.85
2023-05-05T18:22:45.746Z,3.25
2023-05-05T18:25:30.954Z,2.85
2023-05-05T18:28:15.811Z,3.03
2023-05-05T18:31:01.022Z,3.30
2023-05-05T18:33:47.669Z,2.63
2023-05-05T18:36:33.191Z,2.67
2023-05-05T18:39:18.463Z,3.10
2023-05-05T18:42:03.926Z,3.45
2023-05-05T18:44:49.112Z,4.13
2023-05-05T18:47:36.919Z,3.30
2023-05-05T18:50:21.924Z,2.88
2023-05-05T18:53:07.084Z,3.70
2023-05-05T18:55:52.014Z,2.83
2023-05-05T18:58:36.984Z,3.15
2023-05-05T19:01:22.279Z,3.78
2023-05-05T19:04:18.745Z,3.50
2023-05-05T19:07:16.322Z,2.90
2023-05-05T19:10:04.637Z,3.08
2023-05-05T19:12:49.808Z,3.22
2023-05-05T19:15:35.305Z,3.53
2023-05-05T19:18:20.598Z,3.30
2023-05-05T19:21:05.971Z,3.63
2023-05-05T19:23:51.044Z,3.67
2023-05-05T19:26:36.282Z,2.83
2023-05-05T19:29:21.560Z,2.95
2023-05-05T19:32:06.647Z,4.15
2023-05-05T19:34:54.185Z,3.80
2023-05-05T19:37:39.322Z,3.20
2023-05-05T19:40:24.629Z,3.60
2023-05-05T19:43:09.777Z,4.28
2023-05-05T19:45:55.076Z,3.22
2023-05-05T19:48:40.013Z,3.25
2023-05-05T19:51:25.236Z,3.47
2023-05-05T19:54:10.587Z,3.03
2023-05-05T19:56:57.341Z,4.40
2023-05-05T19:59:42.405Z,3.22
2023-05-05T20:02:27.546Z,3.92
2023-05-05T20:05:13.981Z,4.03
2023-05-05T20:07:59.138Z,3.72
2023-05-05T20:10:44.054Z,3.05
2023-05-05T20:13:28.958Z,3.38
2023-05-05T20:16:14.716Z,4.38
2023-05-05T20:18:59.915Z,3.22
2023-05-05T20:21:45.269Z,3.13
2023-05-05T20:24:30.643Z,3.40
2023-05-05T20:27:15.961Z,2.72
2023-05-05T20:30:01.484Z,3.08
2023-05-05T20:32:46.920Z,2.85
2023-05-05T20:35:32.075Z,3.17
2023-05-05T20:38:17.504Z,2.78
2023-05-05T20:41:03.153Z,4.65
2023-05-05T20:43:48.212Z,3.17
2023-05-05T20:46:33.392Z,3.15
2023-05-05T20:49:18.464Z,3.55
2023-05-05T20:52:03.785Z,3.50
2023-05-05T20:54:48.828Z,3.40
2023-05-05T20:57:34.068Z,3.22
2023-05-05T21:00:19.373Z,3.13
2023-05-05T21:03:04.877Z,3.00
2023-05-05T21:05:49.944Z,2.65
2023-05-05T21:08:35.016Z,3.67
2023-05-05T21:11:20.090Z,3.40
2023-05-05T21:14:05.339Z,3.47
2023-05-05T21:16:50.642Z,3.50
2023-05-05T21:19:35.939Z,3.42
2023-05-05T21:22:21.739Z,3.72
2023-05-05T21:25:14.826Z,3.58
2023-05-05T21:28:00.195Z,3.50
2023-05-05T21:30:48.186Z,3.50
2023-05-05T21:33:40.177Z,3.85
2023-05-05T21:36:25.405Z,3.28
2023-05-05T21:39:10.691Z,3.80
2023-05-05T21:41:55.613Z,4.13
2023-05-05T21:44:40.734Z,3.58
2023-05-05T21:47:26.816Z,3.55
2023-05-05T21:50:12.577Z,3.83
2023-05-05T21:52:57.921Z,4.00
2023-05-05T21:55:43.013Z,3.80
2023-05-05T21:58:28.036Z,3.90
2023-05-05T22:01:13.284Z,3.55
2023-05-05T22:03:58.822Z,3.00
2023-05-05T22:06:44.449Z,3.30
2023-05-05T22:09:29.640Z,3.67
2023-05-05T22:12:15.092Z,3.60
2023-05-05T22:15:00.245Z,4.35
2023-05-05T22:17:46.501Z,3.92
2023-05-05T22:20:32.043Z,4.28
2023-05-05T22:23:17.318Z,4.10
2023-05-05T22:26:02.464Z,4.32
2023-05-05T22:28:47.676Z,4.50
2023-05-05T22:31:33.142Z,4.25
2023-05-05T22:34:20.429Z,4.43
2023-05-05T22:37:05.825Z,3.63
2023-05-05T22:39:50.956Z,3.60
2023-05-05T22:42:35.985Z,4.50
2023-05-05T22:45:22.226Z,4.15
2023-05-05T22:48:07.204Z,4.20
2023-05-05T22:51:02.193Z,4.18
2023-05-05T22:53:47.323Z,4.97
2023-05-05T22:56:32.404Z,4.30
2023-05-05T22:59:17.699Z,4.38
2023-05-05T23:02:02.717Z,4.40
2023-05-05T23:04:47.749Z,4.40
2023-05-05T23:07:33.053Z,5.25
2023-05-05T23:10:18.375Z,4.55
2023-05-05T23:13:03.570Z,4.50
2023-05-05T23:15:48.763Z,4.32
2023-05-05T23:18:34.922Z,4.22
2023-05-05T23:21:20.160Z,4.90
2023-05-05T23:24:05.641Z,4.72
2023-05-05T23:26:51.936Z,4.30
2023-05-05T23:29:36.911Z,4.05
2023-05-05T23:32:21.874Z,4.82
2023-05-05T23:35:07.607Z,3.97
2023-05-05T23:37:52.952Z,4.38
2023-05-05T23:40:37.928Z,4.97
2023-05-05T23:43:23.007Z,6.22
2023-05-05T23:46:08.007Z,4.82
2023-05-05T23:48:53.112Z,4.90
2023-05-05T23:51:38.361Z,5.20
2023-05-05T23:54:23.251Z,4.55
2023-05-05T23:57:08.237Z,4.65
2023-05-05T23:59:53.081Z,4.88
